RYR9004 LOWW-LIBD
Flight info
| Callsign | RYR9004 |
|---|---|
| Flight time | 1h 9m |
| Altitude | 35000 |
| Route | STEIN DCT NOHAT DCT KOPRY DCT DIXUM DCT ORAKA DCT AIOSA DCT BANAV |
| Aircraft | B738/M-SDE2E3FGHIRWXY/LB1 |
Departure
| Time | 2026-04-20 16:04 |
|---|---|
| Airport | Vienna International Airport (LOWW) |
Arrival
| Time | 2026-04-20 17:13 |
|---|---|
| Airport | Bari Karol Wojtyła International Airport (LIBD) |
| Time | Latitude | Longitude | Altitude | Speed | Heading |
|---|---|---|---|---|---|
| 2026-04-20 15:48 | 48.12092 | 16.55341 | 590 ft | 0 kts | 295° |
| 2026-04-20 15:48 | 48.12093 | 16.55341 | 590 ft | 0 kts | 295° |
| 2026-04-20 15:56 | 48.12090 | 16.55349 | 590 ft | 2 kts | 294° |
| 2026-04-20 15:56 | 48.12084 | 16.55371 | 590 ft | 2 kts | 289° |
| 2026-04-20 15:56 | 48.12083 | 16.55395 | 589 ft | 2 kts | 223° |
| 2026-04-20 15:57 | 48.12090 | 16.55404 | 589 ft | 1 kts | 209° |
| 2026-04-20 15:57 | 48.12091 | 16.55405 | 589 ft | 0 kts | 209° |
| 2026-04-20 15:58 | 48.12090 | 16.55404 | 589 ft | 2 kts | 209° |
| 2026-04-20 15:58 | 48.12042 | 16.55367 | 591 ft | 10 kts | 204° |
| 2026-04-20 15:59 | 48.11973 | 16.55318 | 592 ft | 12 kts | 209° |
| 2026-04-20 15:59 | 48.11937 | 16.55207 | 592 ft | 12 kts | 244° |
| 2026-04-20 15:59 | 48.11899 | 16.55167 | 592 ft | 0 kts | 177° |
| 2026-04-20 15:59 | 48.11892 | 16.55180 | 592 ft | 4 kts | 126° |
| 2026-04-20 16:00 | 48.11871 | 16.55244 | 593 ft | 9 kts | 116° |
| 2026-04-20 16:00 | 48.11844 | 16.55327 | 593 ft | 10 kts | 115° |
| 2026-04-20 16:00 | 48.11804 | 16.55452 | 593 ft | 18 kts | 116° |
| 2026-04-20 16:00 | 48.11742 | 16.55642 | 598 ft | 20 kts | 116° |
| 2026-04-20 16:01 | 48.11680 | 16.55830 | 600 ft | 20 kts | 116° |
| 2026-04-20 16:01 | 48.11620 | 16.56013 | 602 ft | 19 kts | 116° |
| 2026-04-20 16:01 | 48.11559 | 16.56200 | 600 ft | 20 kts | 115° |
| 2026-04-20 16:01 | 48.11499 | 16.56388 | 598 ft | 20 kts | 116° |
| 2026-04-20 16:02 | 48.11438 | 16.56571 | 599 ft | 19 kts | 116° |
| 2026-04-20 16:02 | 48.11375 | 16.56740 | 600 ft | 16 kts | 136° |
| 2026-04-20 16:02 | 48.11310 | 16.56746 | 601 ft | 6 kts | 226° |
| 2026-04-20 16:02 | 48.11297 | 16.56664 | 602 ft | 11 kts | 266° |
| 2026-04-20 16:03 | 48.11293 | 16.56518 | 603 ft | 17 kts | 268° |
| 2026-04-20 16:03 | 48.11313 | 16.56316 | 600 ft | 24 kts | 291° |
| 2026-04-20 16:03 | 48.11497 | 16.55749 | 602 ft | 107 kts | 296° |
| 2026-04-20 16:03 | 48.11939 | 16.54404 | 871 ft | 165 kts | 298° |
| 2026-04-20 16:04 | 48.12433 | 16.52788 | 2065 ft | 174 kts | 289° |
| 2026-04-20 16:04 | 48.12391 | 16.50898 | 2834 ft | 205 kts | 252° |
| 2026-04-20 16:04 | 48.11379 | 16.49192 | 3164 ft | 240 kts | 211° |
| 2026-04-20 16:04 | 48.09795 | 16.48302 | 3931 ft | 245 kts | 202° |
| 2026-04-20 16:05 | 48.08175 | 16.47443 | 4704 ft | 256 kts | 200° |
| 2026-04-20 16:05 | 48.06313 | 16.47316 | 5329 ft | 278 kts | 175° |
| 2026-04-20 16:05 | 48.04386 | 16.47760 | 6312 ft | 282 kts | 173° |
| 2026-04-20 16:05 | 48.02452 | 16.48300 | 7280 ft | 284 kts | 172° |
| 2026-04-20 16:06 | 48.00500 | 16.48866 | 8278 ft | 285 kts | 173° |
| 2026-04-20 16:06 | 47.98544 | 16.49433 | 9251 ft | 288 kts | 173° |
| 2026-04-20 16:06 | 47.96565 | 16.50001 | 10156 ft | 291 kts | 173° |
| 2026-04-20 16:06 | 47.94520 | 16.50579 | 10600 ft | 311 kts | 173° |
| 2026-04-20 16:07 | 47.92313 | 16.51191 | 10846 ft | 335 kts | 173° |
| 2026-04-20 16:07 | 47.90005 | 16.51833 | 11464 ft | 345 kts | 173° |
| 2026-04-20 16:07 | 47.87632 | 16.52495 | 12266 ft | 349 kts | 173° |
| 2026-04-20 16:07 | 47.85232 | 16.53164 | 13078 ft | 353 kts | 174° |
| 2026-04-20 16:08 | 47.82798 | 16.53840 | 13841 ft | 358 kts | 174° |
| 2026-04-20 16:08 | 47.80332 | 16.54523 | 14570 ft | 362 kts | 174° |
| 2026-04-20 16:08 | 47.77851 | 16.55208 | 15333 ft | 364 kts | 174° |
| 2026-04-20 16:08 | 47.75348 | 16.55898 | 16071 ft | 368 kts | 174° |
| 2026-04-20 16:09 | 47.72853 | 16.56583 | 16795 ft | 371 kts | 175° |
| 2026-04-20 16:09 | 47.70304 | 16.57283 | 17512 ft | 375 kts | 175° |
| 2026-04-20 16:09 | 47.67732 | 16.57987 | 18248 ft | 378 kts | 175° |
| 2026-04-20 16:09 | 47.65137 | 16.58698 | 18866 ft | 381 kts | 176° |
| 2026-04-20 16:10 | 47.62513 | 16.59414 | 19422 ft | 386 kts | 176° |
| 2026-04-20 16:10 | 47.59857 | 16.60138 | 20000 ft | 390 kts | 176° |
| 2026-04-20 16:10 | 47.57179 | 16.60869 | 20590 ft | 393 kts | 176° |
| 2026-04-20 16:10 | 47.54477 | 16.61606 | 21181 ft | 397 kts | 176° |
| 2026-04-20 16:11 | 47.51747 | 16.62349 | 21726 ft | 401 kts | 176° |
| 2026-04-20 16:11 | 47.49027 | 16.63089 | 22287 ft | 404 kts | 176° |
| 2026-04-20 16:11 | 47.46248 | 16.63844 | 22850 ft | 408 kts | 176° |
| 2026-04-20 16:11 | 47.43447 | 16.64604 | 23406 ft | 411 kts | 177° |
| 2026-04-20 16:12 | 47.40618 | 16.65371 | 23851 ft | 415 kts | 177° |
| 2026-04-20 16:12 | 47.37763 | 16.66144 | 24261 ft | 419 kts | 177° |
| 2026-04-20 16:12 | 47.34881 | 16.66923 | 24651 ft | 423 kts | 177° |
| 2026-04-20 16:12 | 47.31966 | 16.67710 | 25034 ft | 428 kts | 178° |
| 2026-04-20 16:13 | 47.29023 | 16.68503 | 25414 ft | 432 kts | 178° |
| 2026-04-20 16:13 | 47.26058 | 16.69303 | 25801 ft | 436 kts | 178° |
| 2026-04-20 16:13 | 47.23102 | 16.70099 | 26170 ft | 440 kts | 178° |
| 2026-04-20 16:13 | 47.20085 | 16.70911 | 26539 ft | 443 kts | 178° |
| 2026-04-20 16:14 | 47.17031 | 16.71732 | 26912 ft | 447 kts | 178° |
| 2026-04-20 16:14 | 47.13963 | 16.72556 | 27287 ft | 450 kts | 178° |
| 2026-04-20 16:14 | 47.10872 | 16.73386 | 27633 ft | 453 kts | 178° |
| 2026-04-20 16:14 | 47.07753 | 16.74221 | 27977 ft | 457 kts | 178° |
| 2026-04-20 16:15 | 47.04623 | 16.75058 | 28302 ft | 460 kts | 178° |
| 2026-04-20 16:15 | 47.01455 | 16.75905 | 28657 ft | 463 kts | 178° |
| 2026-04-20 16:15 | 46.98271 | 16.76755 | 28980 ft | 466 kts | 178° |
| 2026-04-20 16:15 | 46.95113 | 16.77597 | 29289 ft | 470 kts | 178° |
| 2026-04-20 16:16 | 46.91886 | 16.78456 | 29605 ft | 473 kts | 178° |
| 2026-04-20 16:16 | 46.88642 | 16.79319 | 29924 ft | 475 kts | 178° |
| 2026-04-20 16:16 | 46.85381 | 16.80186 | 30204 ft | 478 kts | 178° |
| 2026-04-20 16:16 | 46.82097 | 16.81057 | 30473 ft | 480 kts | 178° |
| 2026-04-20 16:17 | 46.78803 | 16.81931 | 30761 ft | 482 kts | 178° |
| 2026-04-20 16:17 | 46.75509 | 16.82806 | 31136 ft | 481 kts | 178° |
| 2026-04-20 16:17 | 46.72219 | 16.83678 | 31546 ft | 479 kts | 178° |
| 2026-04-20 16:17 | 46.68988 | 16.84534 | 31923 ft | 478 kts | 178° |
| 2026-04-20 16:18 | 46.65715 | 16.85397 | 32284 ft | 478 kts | 177° |
| 2026-04-20 16:18 | 46.62445 | 16.86258 | 32672 ft | 477 kts | 178° |
| 2026-04-20 16:18 | 46.59185 | 16.87115 | 33051 ft | 476 kts | 177° |
| 2026-04-20 16:18 | 46.55925 | 16.87971 | 33386 ft | 476 kts | 177° |
| 2026-04-20 16:19 | 46.52669 | 16.88824 | 33741 ft | 475 kts | 177° |
| 2026-04-20 16:19 | 46.49416 | 16.89677 | 34109 ft | 474 kts | 177° |
| 2026-04-20 16:19 | 46.46171 | 16.90526 | 34416 ft | 473 kts | 176° |
| 2026-04-20 16:19 | 46.42931 | 16.91373 | 34685 ft | 473 kts | 176° |
| 2026-04-20 16:20 | 46.39737 | 16.92206 | 34957 ft | 473 kts | 176° |
| 2026-04-20 16:20 | 46.36489 | 16.93052 | 35012 ft | 476 kts | 176° |
| 2026-04-20 16:20 | 46.29978 | 16.94747 | 35022 ft | 474 kts | 176° |
| 2026-04-20 16:21 | 46.23532 | 16.96387 | 35015 ft | 467 kts | 179° |
| 2026-04-20 16:21 | 46.17105 | 16.97132 | 35024 ft | 461 kts | 184° |
| 2026-04-20 16:22 | 46.10686 | 16.97596 | 35032 ft | 466 kts | 184° |
| 2026-04-20 16:22 | 46.04180 | 16.98089 | 35040 ft | 477 kts | 183° |
| 2026-04-20 16:23 | 45.97488 | 16.98660 | 35033 ft | 486 kts | 182° |
| 2026-04-20 16:23 | 45.90726 | 16.99268 | 35022 ft | 487 kts | 182° |
| 2026-04-20 16:24 | 45.83960 | 16.99882 | 35022 ft | 487 kts | 182° |
| 2026-04-20 16:24 | 45.77254 | 17.00483 | 35020 ft | 486 kts | 182° |
| 2026-04-20 16:25 | 45.70516 | 17.01081 | 35020 ft | 484 kts | 182° |
| 2026-04-20 16:25 | 45.63804 | 17.01675 | 35018 ft | 483 kts | 182° |
| 2026-04-20 16:26 | 45.57108 | 17.02265 | 35018 ft | 481 kts | 182° |
| 2026-04-20 16:26 | 45.50484 | 17.02848 | 35018 ft | 481 kts | 182° |
| 2026-04-20 16:27 | 45.43800 | 17.03434 | 35008 ft | 480 kts | 182° |
| 2026-04-20 16:27 | 45.37145 | 17.04017 | 35014 ft | 479 kts | 182° |
| 2026-04-20 16:28 | 45.30485 | 17.04598 | 35012 ft | 479 kts | 181° |
| 2026-04-20 16:28 | 45.23866 | 17.05175 | 35016 ft | 479 kts | 181° |
| 2026-04-20 16:29 | 45.17221 | 17.05753 | 35012 ft | 478 kts | 181° |
| 2026-04-20 16:29 | 45.10583 | 17.06329 | 35018 ft | 478 kts | 181° |
| 2026-04-20 16:30 | 45.03949 | 17.06903 | 35017 ft | 477 kts | 181° |
| 2026-04-20 16:30 | 44.97360 | 17.07472 | 35016 ft | 478 kts | 181° |
| 2026-04-20 16:31 | 44.90725 | 17.08043 | 35015 ft | 477 kts | 181° |
| 2026-04-20 16:31 | 44.84101 | 17.08613 | 35012 ft | 477 kts | 181° |
| 2026-04-20 16:32 | 44.77467 | 17.09182 | 35013 ft | 477 kts | 181° |
| 2026-04-20 16:32 | 44.70832 | 17.09749 | 35007 ft | 478 kts | 181° |
| 2026-04-20 16:33 | 44.64247 | 17.10312 | 35002 ft | 478 kts | 181° |
| 2026-04-20 16:33 | 44.57609 | 17.10877 | 34996 ft | 477 kts | 181° |
| 2026-04-20 16:34 | 44.50985 | 17.11440 | 34976 ft | 477 kts | 181° |
| 2026-04-20 16:34 | 44.44367 | 17.12001 | 34987 ft | 476 kts | 181° |
| 2026-04-20 16:35 | 44.37792 | 17.12557 | 34988 ft | 477 kts | 181° |
| 2026-04-20 16:35 | 44.31160 | 17.13117 | 34975 ft | 477 kts | 181° |
| 2026-04-20 16:36 | 44.24532 | 17.13675 | 34980 ft | 478 kts | 181° |
| 2026-04-20 16:36 | 44.17893 | 17.14233 | 34980 ft | 478 kts | 181° |
| 2026-04-20 16:37 | 44.11300 | 17.14786 | 34971 ft | 478 kts | 181° |
| 2026-04-20 16:37 | 44.04668 | 17.15341 | 34978 ft | 478 kts | 180° |
| 2026-04-20 16:38 | 43.98034 | 17.15894 | 34969 ft | 478 kts | 180° |
| 2026-04-20 16:38 | 43.91399 | 17.16447 | 34981 ft | 478 kts | 180° |
| 2026-04-20 16:39 | 43.84754 | 17.16999 | 34962 ft | 478 kts | 180° |
| 2026-04-20 16:39 | 43.78158 | 17.17545 | 34979 ft | 478 kts | 180° |
| 2026-04-20 16:40 | 43.71502 | 17.18096 | 34967 ft | 480 kts | 180° |
| 2026-04-20 16:40 | 43.64833 | 17.18646 | 34971 ft | 480 kts | 180° |
| 2026-04-20 16:41 | 43.58203 | 17.19193 | 34966 ft | 481 kts | 180° |
| 2026-04-20 16:41 | 43.51529 | 17.19741 | 34962 ft | 481 kts | 180° |
| 2026-04-20 16:42 | 43.44859 | 17.20054 | 34959 ft | 479 kts | 184° |
| 2026-04-20 16:42 | 43.38203 | 17.20015 | 34965 ft | 478 kts | 184° |
| 2026-04-20 16:43 | 43.31553 | 17.19957 | 34966 ft | 478 kts | 184° |
| 2026-04-20 16:43 | 43.24949 | 17.19947 | 34949 ft | 478 kts | 184° |
| 2026-04-20 16:44 | 43.18354 | 17.19964 | 34939 ft | 464 kts | 184° |
| 2026-04-20 16:44 | 43.11995 | 17.19986 | 34952 ft | 454 kts | 184° |
| 2026-04-20 16:45 | 43.05686 | 17.19996 | 34957 ft | 453 kts | 184° |
| 2026-04-20 16:45 | 42.99426 | 17.20006 | 34973 ft | 453 kts | 184° |
| 2026-04-20 16:46 | 42.93117 | 17.20018 | 34964 ft | 453 kts | 184° |
| 2026-04-20 16:46 | 42.86801 | 17.20031 | 34978 ft | 455 kts | 184° |
| 2026-04-20 16:47 | 42.80453 | 17.20044 | 34972 ft | 456 kts | 184° |
| 2026-04-20 16:47 | 42.74148 | 17.20058 | 34758 ft | 459 kts | 184° |
| 2026-04-20 16:48 | 42.70935 | 17.20062 | 34103 ft | 462 kts | 184° |
| 2026-04-20 16:48 | 42.67727 | 17.20070 | 33445 ft | 459 kts | 184° |
| 2026-04-20 16:48 | 42.64540 | 17.20078 | 32772 ft | 457 kts | 184° |
| 2026-04-20 16:48 | 42.61363 | 17.20085 | 32105 ft | 457 kts | 184° |
| 2026-04-20 16:49 | 42.58176 | 17.20090 | 31406 ft | 459 kts | 184° |
| 2026-04-20 16:49 | 42.55024 | 17.19776 | 30936 ft | 445 kts | 193° |
| 2026-04-20 16:49 | 42.52063 | 17.18884 | 30553 ft | 429 kts | 200° |
| 2026-04-20 16:49 | 42.49355 | 17.17466 | 30037 ft | 417 kts | 210° |
| 2026-04-20 16:50 | 42.46777 | 17.15798 | 29519 ft | 405 kts | 210° |
| 2026-04-20 16:50 | 42.44258 | 17.14165 | 29077 ft | 399 kts | 210° |
| 2026-04-20 16:50 | 42.41762 | 17.12551 | 28620 ft | 396 kts | 210° |
| 2026-04-20 16:50 | 42.39289 | 17.10959 | 28169 ft | 393 kts | 210° |
| 2026-04-20 16:51 | 42.36832 | 17.09387 | 27747 ft | 389 kts | 210° |
| 2026-04-20 16:51 | 42.34388 | 17.07828 | 27306 ft | 387 kts | 210° |
| 2026-04-20 16:51 | 42.31961 | 17.06286 | 26881 ft | 384 kts | 210° |
| 2026-04-20 16:51 | 42.29549 | 17.04756 | 26449 ft | 382 kts | 210° |
| 2026-04-20 16:52 | 42.27183 | 17.03257 | 26032 ft | 380 kts | 210° |
| 2026-04-20 16:52 | 42.24796 | 17.01748 | 25613 ft | 378 kts | 210° |
| 2026-04-20 16:52 | 42.22422 | 17.00248 | 25205 ft | 376 kts | 210° |
| 2026-04-20 16:52 | 42.20057 | 16.98755 | 24790 ft | 374 kts | 210° |
| 2026-04-20 16:53 | 42.17704 | 16.97270 | 24368 ft | 373 kts | 210° |
| 2026-04-20 16:53 | 42.15360 | 16.95792 | 23957 ft | 372 kts | 210° |
| 2026-04-20 16:53 | 42.13021 | 16.94319 | 23544 ft | 370 kts | 210° |
| 2026-04-20 16:53 | 42.10719 | 16.92870 | 23069 ft | 369 kts | 210° |
| 2026-04-20 16:54 | 42.08397 | 16.91409 | 22608 ft | 368 kts | 210° |
| 2026-04-20 16:54 | 42.06086 | 16.89958 | 22182 ft | 365 kts | 210° |
| 2026-04-20 16:54 | 42.03790 | 16.88517 | 21762 ft | 363 kts | 210° |
| 2026-04-20 16:54 | 42.01505 | 16.87084 | 21353 ft | 361 kts | 209° |
| 2026-04-20 16:55 | 41.99235 | 16.85661 | 20940 ft | 359 kts | 209° |
| 2026-04-20 16:55 | 41.96977 | 16.84247 | 20536 ft | 357 kts | 209° |
| 2026-04-20 16:55 | 41.94726 | 16.82838 | 20134 ft | 356 kts | 209° |
| 2026-04-20 16:55 | 41.92516 | 16.81456 | 19744 ft | 354 kts | 209° |
| 2026-04-20 16:56 | 41.90287 | 16.80063 | 19336 ft | 353 kts | 209° |
| 2026-04-20 16:56 | 41.88063 | 16.78674 | 18938 ft | 352 kts | 209° |
| 2026-04-20 16:56 | 41.85844 | 16.77290 | 18538 ft | 351 kts | 209° |
| 2026-04-20 16:56 | 41.83629 | 16.75909 | 18120 ft | 351 kts | 208° |
| 2026-04-20 16:57 | 41.81418 | 16.74531 | 17666 ft | 350 kts | 208° |
| 2026-04-20 16:57 | 41.79213 | 16.73159 | 17236 ft | 348 kts | 208° |
| 2026-04-20 16:57 | 41.77019 | 16.71794 | 16824 ft | 347 kts | 208° |
| 2026-04-20 16:57 | 41.74865 | 16.70456 | 16424 ft | 345 kts | 208° |
| 2026-04-20 16:58 | 41.72692 | 16.69107 | 16029 ft | 344 kts | 208° |
| 2026-04-20 16:58 | 41.70529 | 16.67764 | 15630 ft | 342 kts | 208° |
| 2026-04-20 16:58 | 41.68372 | 16.66426 | 15241 ft | 341 kts | 207° |
| 2026-04-20 16:58 | 41.66223 | 16.65095 | 14843 ft | 340 kts | 207° |
| 2026-04-20 16:59 | 41.64082 | 16.63769 | 14439 ft | 339 kts | 207° |
| 2026-04-20 16:59 | 41.61944 | 16.62446 | 14044 ft | 338 kts | 207° |
| 2026-04-20 16:59 | 41.59810 | 16.61127 | 13634 ft | 338 kts | 207° |
| 2026-04-20 16:59 | 41.57679 | 16.59810 | 13203 ft | 337 kts | 207° |
| 2026-04-20 17:00 | 41.53467 | 16.57211 | 12389 ft | 334 kts | 207° |
| 2026-04-20 17:00 | 41.51363 | 16.55914 | 11984 ft | 332 kts | 207° |
| 2026-04-20 17:00 | 41.49269 | 16.54624 | 11587 ft | 331 kts | 207° |
| 2026-04-20 17:01 | 41.47187 | 16.53342 | 11199 ft | 329 kts | 207° |
| 2026-04-20 17:01 | 41.45118 | 16.52070 | 10899 ft | 323 kts | 206° |
| 2026-04-20 17:01 | 41.43090 | 16.50824 | 10461 ft | 318 kts | 206° |
| 2026-04-20 17:01 | 41.41124 | 16.49618 | 10290 ft | 305 kts | 207° |
| 2026-04-20 17:02 | 41.39229 | 16.48456 | 10138 ft | 296 kts | 207° |
| 2026-04-20 17:02 | 41.37409 | 16.47339 | 10020 ft | 288 kts | 207° |
| 2026-04-20 17:02 | 41.35602 | 16.46231 | 9798 ft | 285 kts | 206° |
| 2026-04-20 17:02 | 41.33807 | 16.45130 | 9487 ft | 283 kts | 207° |
| 2026-04-20 17:03 | 41.32023 | 16.44037 | 9166 ft | 281 kts | 207° |
| 2026-04-20 17:03 | 41.30253 | 16.42953 | 8874 ft | 279 kts | 207° |
| 2026-04-20 17:03 | 41.28493 | 16.41876 | 8577 ft | 278 kts | 207° |
| 2026-04-20 17:03 | 41.26723 | 16.40793 | 8282 ft | 282 kts | 207° |
| 2026-04-20 17:04 | 41.24931 | 16.39697 | 7980 ft | 285 kts | 207° |
| 2026-04-20 17:04 | 41.23131 | 16.38597 | 7668 ft | 285 kts | 207° |
| 2026-04-20 17:04 | 41.21333 | 16.37500 | 7361 ft | 284 kts | 207° |
| 2026-04-20 17:04 | 41.19564 | 16.36421 | 7079 ft | 282 kts | 207° |
| 2026-04-20 17:05 | 41.17797 | 16.35344 | 6967 ft | 278 kts | 207° |
| 2026-04-20 17:05 | 41.16039 | 16.34274 | 6844 ft | 277 kts | 207° |
| 2026-04-20 17:05 | 41.14285 | 16.33206 | 6722 ft | 277 kts | 207° |
| 2026-04-20 17:05 | 41.12485 | 16.32293 | 6597 ft | 280 kts | 192° |
| 2026-04-20 17:06 | 41.10523 | 16.32366 | 6320 ft | 289 kts | 169° |
| 2026-04-20 17:06 | 41.08614 | 16.33202 | 6010 ft | 287 kts | 161° |
| 2026-04-20 17:06 | 41.06764 | 16.34183 | 5714 ft | 285 kts | 160° |
| 2026-04-20 17:06 | 41.05117 | 16.35561 | 5391 ft | 288 kts | 133° |
| 2026-04-20 17:07 | 41.04220 | 16.37890 | 5120 ft | 287 kts | 100° |
| 2026-04-20 17:07 | 41.04240 | 16.40507 | 4861 ft | 284 kts | 81° |
| 2026-04-20 17:07 | 41.04642 | 16.43055 | 4534 ft | 283 kts | 73° |
| 2026-04-20 17:07 | 41.05229 | 16.45496 | 4447 ft | 272 kts | 69° |
| 2026-04-20 17:08 | 41.05871 | 16.47805 | 4288 ft | 263 kts | 68° |
| 2026-04-20 17:08 | 41.06511 | 16.50051 | 3974 ft | 257 kts | 68° |
| 2026-04-20 17:08 | 41.07134 | 16.52247 | 3662 ft | 251 kts | 68° |
| 2026-04-20 17:08 | 41.07714 | 16.54319 | 3478 ft | 234 kts | 68° |
| 2026-04-20 17:09 | 41.08254 | 16.56285 | 3236 ft | 221 kts | 69° |
| 2026-04-20 17:09 | 41.08779 | 16.58170 | 2848 ft | 215 kts | 68° |
| 2026-04-20 17:09 | 41.09313 | 16.59986 | 2584 ft | 206 kts | 68° |
| 2026-04-20 17:09 | 41.09800 | 16.61718 | 2308 ft | 196 kts | 70° |
| 2026-04-20 17:10 | 41.10272 | 16.63382 | 1977 ft | 188 kts | 69° |
| 2026-04-20 17:10 | 41.10705 | 16.64906 | 1811 ft | 166 kts | 70° |
| 2026-04-20 17:10 | 41.11083 | 16.66234 | 1653 ft | 141 kts | 71° |
| 2026-04-20 17:10 | 41.11397 | 16.67399 | 1377 ft | 131 kts | 71° |
| 2026-04-20 17:11 | 41.11726 | 16.68538 | 1147 ft | 133 kts | 70° |
| 2026-04-20 17:11 | 41.12047 | 16.69687 | 999 ft | 137 kts | 71° |
| 2026-04-20 17:11 | 41.12384 | 16.70873 | 821 ft | 136 kts | 69° |
| 2026-04-20 17:11 | 41.12716 | 16.72043 | 638 ft | 134 kts | 70° |
| 2026-04-20 17:12 | 41.13045 | 16.73196 | 422 ft | 133 kts | 69° |
| 2026-04-20 17:12 | 41.13363 | 16.74331 | 257 ft | 130 kts | 69° |
| 2026-04-20 17:12 | 41.13671 | 16.75400 | 170 ft | 114 kts | 69° |
| 2026-04-20 17:12 | 41.13910 | 16.76257 | 144 ft | 81 kts | 69° |
| 2026-04-20 17:13 | 41.14001 | 16.76611 | 134 ft | 20 kts | 95° |
| 2026-04-20 17:13 | 41.13955 | 16.76756 | 133 ft | 13 kts | 112° |
| 2026-04-20 17:13 | 41.13909 | 16.76823 | 128 ft | 8 kts | 166° |
| 2026-04-20 17:13 | 41.13887 | 16.76818 | 129 ft | 0 kts | 208° |
| 2026-04-20 17:14 | 41.13887 | 16.76817 | 129 ft | 0 kts | 214° |
| 2026-04-20 17:14 | 41.13875 | 16.76791 | 131 ft | 4 kts | 248° |
| 2026-04-20 17:14 | 41.13863 | 16.76756 | 129 ft | 4 kts | 247° |
| 2026-04-20 17:15 | 41.13849 | 16.76711 | 132 ft | 8 kts | 247° |
| 2026-04-20 17:15 | 41.13817 | 16.76595 | 137 ft | 16 kts | 245° |
| 2026-04-20 17:15 | 41.13750 | 16.76550 | 138 ft | 10 kts | 169° |
| 2026-04-20 17:15 | 41.13683 | 16.76538 | 139 ft | 10 kts | 204° |
| 2026-04-20 17:16 | 41.13640 | 16.76481 | 142 ft | 6 kts | 228° |
| 2026-04-20 17:16 | 41.13603 | 16.76486 | 144 ft | 6 kts | 135° |
| 2026-04-20 17:16 | 41.13585 | 16.76502 | 144 ft | 0 kts | 156° |